Time;durP1;ratioP1;P1;durP2;ratioP2;P2;SDS_P1;SDS_P2;PMS_P1;PMS_P2;Temp;Humidity;BMP_temperature;BMP_pressure;BME280_temperature;BME280_humidity;BME280_pressure;Samples;Min_cycle;Max_cycle;Signal;HPM_P1;HPM_P2
2022/10/07 05:02:49;;;;;;;12.60;4.47;;;13.40;99.90;;;;;;6200042;23;20017;-78
2022/10/07 05:05:17;;;;;;;11.52;4.22;;;13.40;99.90;;;;;;6202552;23;20024;-77
2022/10/07 05:07:49;;;;;;;18.73;10.07;;;13.40;99.90;;;;;;6228445;23;20004;-79
2022/10/07 05:10:21;;;;;;;13.25;5.65;;;13.50;99.90;;;;;;6229822;23;20297;-79
2022/10/07 05:12:47;;;;;;;12.82;4.95;;;13.50;99.90;;;;;;6256183;23;20051;-78
2022/10/07 05:15:13;;;;;;;13.32;4.32;;;13.40;99.90;;;;;;6206555;23;20015;-79
2022/10/07 05:17:42;;;;;;;8.48;3.90;;;13.40;99.90;;;;;;6255966;23;20239;-77
2022/10/07 05:20:08;;;;;;;10.70;4.00;;;13.40;99.90;;;;;;6230601;23;19996;-77
2022/10/07 05:22:35;;;;;;;10.25;4.20;;;13.40;99.90;;;;;;6231871;23;20265;-77
2022/10/07 05:25:01;;;;;;;8.50;3.80;;;13.30;99.90;;;;;;6256117;23;19996;-77
2022/10/07 05:27:26;;;;;;;5.90;3.13;;;13.30;99.90;;;;;;6255941;23;20024;-77
2022/10/07 05:29:53;;;;;;;8.93;3.83;;;13.30;99.90;;;;;;6257845;23;20012;-77
2022/10/07 05:32:20;;;;;;;9.40;4.00;;;13.30;99.90;;;;;;6206971;23;20008;-76
2022/10/07 05:34:46;;;;;;;8.55;3.75;;;13.30;99.90;;;;;;6207054;23;20011;-77
2022/10/07 05:37:14;;;;;;;9.52;3.83;;;13.30;99.90;;;;;;6256850;23;20004;-77
2022/10/07 05:39:40;;;;;;;10.33;3.97;;;13.40;99.90;;;;;;6229159;23;20282;-77
2022/10/07 05:42:14;;;;;;;11.95;4.07;;;13.40;99.90;;;;;;6229255;23;20779;-78
2022/10/07 05:44:50;;;;;;;9.35;3.78;;;13.40;99.90;;;;;;6255160;23;20008;-77
2022/10/07 05:47:19;;;;;;;19.08;13.07;;;13.50;99.90;;;;;;6230635;23;20011;-77
2022/10/07 05:49:45;;;;;;;11.80;6.65;;;13.40;99.90;;;;;;6205614;23;20016;-77
2022/10/07 05:52:11;;;;;;;11.77;4.75;;;13.50;99.90;;;;;;6206886;23;20056;-77
2022/10/07 05:54:37;;;;;;;8.30;4.40;;;13.60;99.90;;;;;;6254053;23;20078;-76
2022/10/07 05:57:03;;;;;;;11.55;4.00;;;13.70;99.90;;;;;;6254811;23;20085;-78
2022/10/07 05:59:30;;;;;;;8.02;4.30;;;13.80;99.90;;;;;;6203531;23;20293;-78
2022/10/07 06:01:58;;;;;;;8.20;3.78;;;13.80;99.90;;;;;;6232868;23;20015;-77
2022/10/07 06:04:26;;;;;;;8.23;3.35;;;13.90;99.90;;;;;;6228568;23;20004;-77
2022/10/07 06:06:52;;;;;;;7.78;3.50;;;14.00;99.90;;;;;;6254262;23;20024;-77
2022/10/07 06:15:05;;;;;;;8.13;3.22;;;14.10;99.90;;;;;;6253649;23;20058;-76
2022/10/07 06:17:34;;;;;;;7.75;3.35;;;14.30;99.90;;;;;;6227134;23;20031;-76
2022/10/07 06:20:04;;;;;;;8.98;3.75;;;14.40;99.90;;;;;;6252247;23;20314;-76
2022/10/07 06:22:30;;;;;;;10.27;3.83;;;14.40;99.90;;;;;;6251275;23;20229;-80
2022/10/07 06:24:57;;;;;;;8.88;3.47;;;14.50;99.90;;;;;;6252557;23;20050;-77
2022/10/07 06:27:24;;;;;;;12.35;4.20;;;14.60;99.90;;;;;;6278729;22;20008;-77
2022/10/07 06:29:49;;;;;;;12.35;4.20;;;14.70;99.90;;;;;;6253735;23;20064;-78
2022/10/07 06:32:15;;;;;;;11.98;4.20;;;14.80;99.90;;;;;;6228045;23;20008;-77
2022/10/07 06:34:43;;;;;;;12.73;5.15;;;14.90;99.90;;;;;;6252172;23;20034;-79
2022/10/07 06:37:10;;;;;;;12.23;4.53;;;14.90;99.90;;;;;;6252907;23;20039;-77
2022/10/07 06:39:36;;;;;;;15.50;4.85;;;14.90;99.90;;;;;;6252581;23;20008;-76
2022/10/07 06:42:02;;;;;;;12.40;4.32;;;15.00;99.90;;;;;;6253107;23;20130;-79
2022/10/07 06:44:54;;;;;;;8.65;4.40;;;15.10;99.90;;;;;;6254026;22;20016;-78
2022/10/07 06:47:22;;;;;;;13.05;4.68;;;15.30;99.90;;;;;;6253323;23;20059;-77
2022/10/07 06:49:51;;;;;;;16.85;4.97;;;15.40;99.90;;;;;;6227522;23;20015;-77
2022/10/07 06:52:17;;;;;;;11.25;4.90;;;15.40;99.90;;;;;;6253274;23;20031;-77
2022/10/07 06:54:43;;;;;;;9.18;4.57;;;15.60;99.90;;;;;;6252895;22;20042;-77
2022/10/07 06:57:11;;;;;;;12.90;4.83;;;15.60;99.90;;;;;;6252435;23;20008;-78
2022/10/07 06:59:36;;;;;;;9.07;4.63;;;15.60;99.90;;;;;;6252111;23;20225;-78
2022/10/07 07:02:10;;;;;;;12.57;4.97;;;15.80;99.90;;;;;;6248814;23;20317;-77
2022/10/07 07:04:36;;;;;;;13.23;5.28;;;15.90;99.90;;;;;;6252527;23;20012;-78
2022/10/07 07:07:02;;;;;;;12.45;5.50;;;16.00;99.90;;;;;;6228745;23;20015;-80
2022/10/07 07:09:28;;;;;;;11.27;4.80;;;16.00;99.90;;;;;;6252751;23;20004;-80
2022/10/07 07:11:56;;;;;;;10.15;4.70;;;16.10;99.90;;;;;;6228068;23;20004;-78
2022/10/07 07:14:25;;;;;;;10.27;4.30;;;16.20;99.90;;;;;;6252677;23;20019;-78
2022/10/07 07:17:04;;;;;;;13.55;4.53;;;16.40;99.90;;;;;;6227096;23;20010;-80
2022/10/07 07:19:32;;;;;;;11.25;4.32;;;16.40;99.90;;;;;;6201583;23;20004;-79
2022/10/07 07:21:58;;;;;;;10.68;4.53;;;16.40;99.90;;;;;;6226582;23;20092;-80
2022/10/07 07:24:25;;;;;;;7.18;4.32;;;16.50;99.90;;;;;;6251778;23;20061;-79
2022/10/07 07:26:52;;;;;;;13.23;4.25;;;16.50;99.90;;;;;;6201530;23;20020;-78
2022/10/07 07:29:19;;;;;;;10.45;4.72;;;16.60;99.90;;;;;;6227887;23;20015;-79
2022/10/07 07:31:56;;;;;;;11.57;4.47;;;16.60;99.90;;;;;;6252957;23;20256;-78
2022/10/07 07:34:25;;;;;;;9.70;5.18;;;16.60;99.90;;;;;;6227378;23;20008;-80
2022/10/07 07:36:51;;;;;;;11.90;4.68;;;16.70;99.90;;;;;;6227688;23;20139;-77
2022/10/07 07:39:19;;;;;;;10.30;4.73;;;16.70;99.90;;;;;;6253549;23;20004;-78
2022/10/07 07:41:51;;;;;;;11.48;4.88;;;16.70;99.90;;;;;;6228930;23;20125;-79
2022/10/07 07:44:19;;;;;;;9.80;4.00;;;16.80;99.90;;;;;;6252210;23;20005;-76
2022/10/07 07:46:50;;;;;;;10.88;4.32;;;16.80;99.90;;;;;;6227011;23;19995;-78
2022/10/07 07:49:30;;;;;;;10.45;4.38;;;16.90;99.90;;;;;;6228117;23;20052;-77
2022/10/07 07:52:00;;;;;;;10.43;5.13;;;17.00;99.90;;;;;;6228385;23;20270;-78
2022/10/07 07:54:33;;;;;;;12.13;4.65;;;17.00;99.90;;;;;;6228779;23;20046;-77
2022/10/07 07:56:59;;;;;;;9.60;4.65;;;17.10;99.90;;;;;;6204034;23;20015;-77
2022/10/07 07:59:31;;;;;;;13.60;5.00;;;17.30;99.90;;;;;;6207939;23;20082;-77
2022/10/07 08:01:58;;;;;;;13.25;5.28;;;17.40;99.90;;;;;;6230331;23;20012;-78
2022/10/07 08:04:24;;;;;;;14.30;5.18;;;17.50;99.90;;;;;;6252735;23;20357;-78
2022/10/07 08:06:50;;;;;;;10.15;4.25;;;17.70;99.90;;;;;;6227685;23;20332;-78
2022/10/07 08:09:22;;;;;;;8.10;4.38;;;17.70;99.90;;;;;;6227069;23;20302;-78
2022/10/07 08:11:49;;;;;;;8.85;4.70;;;17.80;99.90;;;;;;6201215;23;20004;-74
2022/10/07 08:14:16;;;;;;;7.93;4.07;;;17.90;99.90;;;;;;6200847;23;20004;-73
2022/10/07 08:16:44;;;;;;;8.35;4.15;;;17.90;99.90;;;;;;6224833;23;20012;-74
2022/10/07 08:19:11;;;;;;;9.93;3.60;;;18.00;99.90;;;;;;6225379;23;20238;-75
2022/10/07 08:21:37;;;;;;;11.80;4.60;;;18.10;99.90;;;;;;6252264;23;20004;-75
2022/10/07 08:24:05;;;;;;;11.55;4.93;;;18.20;99.90;;;;;;6228899;23;20034;-75
2022/10/07 08:26:36;;;;;;;21.13;11.70;;;18.10;99.90;;;;;;6225641;23;20008;-76
2022/10/07 08:29:04;;;;;;;11.43;5.07;;;18.30;99.90;;;;;;6225776;23;20302;-75
2022/10/07 08:31:31;;;;;;;9.13;4.03;;;18.40;99.90;;;;;;6225836;23;20106;-76
2022/10/07 08:38:00;;;;;;;5.65;2.42;;;18.70;99.90;;;;;;6130409;23;20017;-79
2022/10/07 08:40:28;;;;;;;5.82;1.98;;;18.60;99.90;;;;;;6130517;23;20053;-77
2022/10/07 08:42:54;;;;;;;;;;;18.60;99.90;;;;;;6157808;23;20081;-76
2022/10/07 08:45:30;;;;;;;5.25;2.47;;;18.50;99.90;;;;;;6131476;23;19928;-79
2022/10/07 08:48:04;;;;;;;4.95;2.53;;;18.50;99.90;;;;;;6132324;23;20310;-80
2022/10/07 08:51:11;;;;;;;9.35;2.80;;;18.60;99.90;;;;;;6132213;23;20283;-81
2022/10/07 08:56:38;;;;;;;4.90;2.28;;;18.60;99.90;;;;;;6132698;23;20013;-79
2022/10/07 08:59:31;;;;;;;4.05;1.90;;;18.70;99.90;;;;;;6131752;23;20010;-81
2022/10/07 09:02:29;;;;;;;5.65;2.20;;;18.90;99.90;;;;;;6131242;23;20006;-78
2022/10/07 09:05:19;;;;;;;7.25;2.55;;;19.00;99.90;;;;;;6131677;23;20246;-79
2022/10/07 09:07:58;;;;;;;8.52;2.70;;;18.90;99.90;;;;;;6132011;23;20002;-80
2022/10/07 09:10:41;;;;;;;6.43;2.70;;;18.80;99.90;;;;;;6134857;23;20005;-77
2022/10/07 09:13:27;;;;;;;6.88;2.20;;;18.90;99.90;;;;;;6132448;23;20065;-78
2022/10/07 09:16:19;;;;;;;4.82;2.30;;;19.00;99.90;;;;;;6231515;23;20016;-75
2022/10/07 09:19:16;;;;;;;6.82;2.55;;;18.90;99.90;;;;;;6256873;23;20008;-76
2022/10/07 09:21:54;;;;;;;6.15;2.50;;;18.90;99.90;;;;;;6252629;23;20431;-77
2022/10/07 09:24:27;;;;;;;8.35;2.60;;;19.10;99.90;;;;;;6256363;23;20297;-77
2022/10/07 09:27:01;;;;;;;9.48;2.42;;;19.20;99.90;;;;;;6255773;23;19996;-79
2022/10/07 09:29:29;;;;;;;6.95;2.85;;;19.30;99.90;;;;;;6255286;23;20004;-79
2022/10/07 09:31:58;;;;;;;6.22;2.72;;;19.20;99.90;;;;;;6254386;23;20008;-78
2022/10/07 09:37:59;;;;;;;5.53;2.10;;;19.30;99.90;;;;;;6255867;23;20087;-79
2022/10/07 09:43:33;;;;;;;5.30;2.33;;;19.40;99.90;;;;;;6255494;23;20027;-77
2022/10/07 09:46:00;;;;;;;7.70;2.40;;;19.40;99.90;;;;;;6203844;23;20189;-78
2022/10/07 09:48:51;;;;;;;8.45;3.08;;;19.50;99.90;;;;;;6253154;23;20010;-79
2022/10/07 09:51:26;;;;;;;5.35;2.70;;;19.50;99.90;;;;;;6204620;23;20084;-81
2022/10/07 09:54:15;;;;;;;6.95;2.60;;;19.60;99.90;;;;;;6227392;23;20098;-80
2022/10/07 09:56:53;;;;;;;7.72;2.83;;;19.70;99.90;;;;;;6202811;23;20178;-78
2022/10/07 09:59:41;;;;;;;4.20;2.83;;;19.90;99.40;;;;;;6253235;23;20004;-76
2022/10/07 10:06:20;;;;;;;5.97;2.90;;;19.80;99.20;;;;;;6229270;23;20008;-77
2022/10/07 10:09:22;;;;;;;5.40;3.00;;;19.90;99.10;;;;;;6229082;23;20340;-79
2022/10/07 10:12:20;;;;;;;6.53;3.15;;;19.90;99.20;;;;;;6247451;23;20016;-78
2022/10/07 10:15:31;;;;;;;6.25;2.67;;;20.20;98.80;;;;;;6225482;23;20004;-77
2022/10/07 10:18:22;;;;;;;7.18;3.30;;;20.20;98.90;;;;;;6101948;23;20061;-80
2022/10/07 10:20:54;;;;;;;5.25;3.17;;;20.30;98.60;;;;;;6077945;23;20014;-78
2022/10/07 10:23:45;;;;;;;5.85;3.00;;;20.50;98.50;;;;;;6102029;23;20338;-80
2022/10/07 10:29:35;;;;;;;4.85;3.20;;;20.70;97.80;;;;;;6102003;23;20086;-75
2022/10/07 10:32:01;;;;;;;5.30;2.63;;;20.70;97.90;;;;;;6101034;23;20359;-76
2022/10/07 10:34:41;;;;;;;3.83;2.78;;;20.90;97.50;;;;;;6101698;23;20059;-78
2022/10/07 10:37:09;;;;;;;6.63;3.08;;;21.10;97.40;;;;;;6101422;23;20193;-73
2022/10/07 10:39:48;;;;;;;5.05;3.00;;;21.20;97.10;;;;;;6101402;23;20104;-76
2022/10/07 10:42:21;;;;;;;6.25;3.15;;;21.40;96.60;;;;;;6101453;23;20013;-75
2022/10/07 10:45:12;;;;;;;5.90;3.30;;;21.70;96.30;;;;;;6100542;23;20010;-78
2022/10/07 10:48:38;;;;;;;6.43;3.25;;;21.90;95.80;;;;;;6101202;23;20164;-75
2022/10/07 10:51:12;;;;;;;8.07;3.50;;;22.20;95.40;;;;;;6014932;23;20066;-74
2022/10/07 10:54:25;;;;;;;5.85;3.28;;;22.30;94.80;;;;;;6121961;23;20000;-77
2022/10/07 10:56:59;;;;;;;6.28;3.17;;;22.40;95.10;;;;;;6245163;23;20000;-76
2022/10/07 10:59:44;;;;;;;7.57;2.97;;;23.10;94.00;;;;;;6252812;23;20324;-75
2022/10/07 11:02:37;;;;;;;4.53;2.55;;;23.70;92.60;;;;;;6231601;23;20019;-75
2022/10/07 11:05:20;;;;;;;8.23;2.78;;;24.00;91.90;;;;;;6252169;23;20115;-77
2022/10/07 11:07:49;;;;;;;6.75;2.58;;;24.20;91.90;;;;;;6251057;23;20369;-76
2022/10/07 11:10:54;;;;;;;5.85;3.45;;;24.50;91.00;;;;;;6226279;23;20000;-77
2022/10/07 11:13:33;;;;;;;7.28;3.13;;;24.90;90.20;;;;;;6252162;23;20286;-74
2022/10/07 11:16:06;;;;;;;6.10;2.75;;;25.40;89.50;;;;;;6252205;23;19996;-75
2022/10/07 11:18:59;;;;;;;5.43;2.78;;;25.60;88.10;;;;;;6253211;22;20229;-74
2022/10/07 11:21:32;;;;;;;5.53;3.30;;;25.90;86.60;;;;;;6252488;22;20011;-74
2022/10/07 11:24:02;;;;;;;11.40;3.22;;;25.80;86.70;;;;;;6250364;23;20008;-73
2022/10/07 11:26:32;;;;;;;6.40;4.78;;;26.10;85.90;;;;;;6251524;23;20034;-75
2022/10/07 11:29:02;;;;;;;6.57;3.63;;;26.40;84.50;;;;;;6252048;23;20004;-75
2022/10/07 11:31:35;;;;;;;5.70;3.03;;;26.70;83.80;;;;;;6252825;22;19996;-74
2022/10/07 11:34:27;;;;;;;6.88;3.30;;;27.00;82.90;;;;;;6252905;22;20086;-75
2022/10/07 11:37:10;;;;;;;4.32;2.65;;;27.20;81.90;;;;;;6252164;23;20003;-78
2022/10/07 11:39:37;;;;;;;5.78;3.00;;;27.70;81.00;;;;;;6252301;23;20007;-76
2022/10/07 11:42:14;;;;;;;6.17;3.07;;;28.40;78.40;;;;;;6252198;22;20000;-76
2022/10/07 11:45:28;;;;;;;4.75;3.03;;;28.60;78.00;;;;;;6252863;22;20004;-76
2022/10/07 11:48:03;;;;;;;5.30;3.50;;;28.10;78.40;;;;;;6252097;23;20000;-75
2022/10/07 11:50:36;;;;;;;6.85;3.13;;;28.40;77.00;;;;;;6226419;23;20282;-78
2022/10/07 11:53:08;;;;;;;6.18;3.47;;;27.80;77.50;;;;;;6225835;23;20245;-76
2022/10/07 11:55:43;;;;;;;5.22;3.10;;;27.60;78.80;;;;;;6251413;23;20138;-75
2022/10/07 11:58:24;;;;;;;8.90;3.83;;;28.50;77.10;;;;;;6225842;23;20312;-76
2022/10/07 12:00:50;;;;;;;6.10;3.25;;;28.60;75.50;;;;;;6250423;23;20000;-77
2022/10/07 12:03:19;;;;;;;5.88;3.20;;;28.50;75.70;;;;;;6251081;23;20012;-76
2022/10/07 12:05:52;;;;;;;6.95;2.80;;;28.90;74.80;;;;;;6251929;23;20008;-76
2022/10/07 12:08:24;;;;;;;6.57;3.00;;;29.00;74.20;;;;;;6252900;23;20008;-76
2022/10/07 12:10:54;;;;;;;5.80;2.78;;;28.70;73.90;;;;;;6251866;23;20000;-78
2022/10/07 12:13:20;;;;;;;4.63;2.83;;;29.00;73.90;;;;;;6226281;23;20603;-76
2022/10/07 12:15:47;;;;;;;6.47;3.20;;;29.10;73.60;;;;;;6251661;23;20016;-77
2022/10/07 12:18:22;;;;;;;7.22;3.35;;;29.20;72.80;;;;;;6251104;23;20047;-77
2022/10/07 12:20:51;;;;;;;7.95;3.40;;;29.60;72.30;;;;;;6252605;23;20027;-78
2022/10/07 12:23:21;;;;;;;6.85;2.90;;;28.80;73.10;;;;;;6254751;22;20304;-77
2022/10/07 12:26:02;;;;;;;4.50;2.60;;;29.00;73.50;;;;;;6229452;23;20003;-79
2022/10/07 12:28:40;;;;;;;4.10;2.70;;;29.20;73.30;;;;;;6253829;23;20007;-78
2022/10/07 12:31:15;;;;;;;4.95;2.60;;;30.00;72.70;;;;;;6254587;22;20065;-78
2022/10/07 12:33:43;;;;;;;3.80;2.40;;;30.50;70.00;;;;;;6254014;23;20018;-76
2022/10/07 12:36:21;;;;;;;5.00;3.58;;;31.00;70.40;;;;;;6253003;23;20046;-76
2022/10/07 12:38:57;;;;;;;;;;;30.70;69.00;;;;;;6254146;23;20046;-76
2022/10/07 12:41:35;;;;;;;5.32;2.83;;;30.50;69.20;;;;;;6253154;23;19919;-77
2022/10/07 12:44:05;;;;;;;6.68;2.80;;;30.40;68.40;;;;;;6252811;22;20016;-76
2022/10/07 12:46:36;;;;;;;5.97;2.80;;;30.10;70.00;;;;;;6227842;23;20023;-76
2022/10/07 12:49:23;;;;;;;5.28;2.80;;;30.10;69.60;;;;;;6252276;23;20055;-76
2022/10/07 12:51:52;;;;;;;8.20;2.50;;;30.50;68.60;;;;;;6252159;23;19996;-76
2022/10/07 12:54:30;;;;;;;5.07;2.60;;;31.50;68.60;;;;;;6252978;22;20024;-77
2022/10/07 12:56:55;;;;;;;4.85;2.78;;;31.60;66.80;;;;;;6252039;23;20000;-75
2022/10/07 12:59:55;;;;;;;6.05;2.90;;;31.20;67.70;;;;;;6254011;23;20015;-78
2022/10/07 13:02:42;;;;;;;14.43;7.75;;;30.90;67.10;;;;;;6266735;22;20062;-78
2022/10/07 13:05:49;;;;;;;4.43;3.13;;;31.00;67.00;;;;;;6257790;22;20014;-76
2022/10/07 13:08:42;;;;;;;4.38;3.38;;;31.40;66.10;;;;;;6285161;22;20058;-75
2022/10/07 13:11:55;;;;;;;5.20;2.80;;;31.60;66.10;;;;;;6257895;22;20310;-75
2022/10/07 13:14:49;;;;;;;5.63;2.33;;;32.20;64.80;;;;;;6270736;22;20000;-76
2022/10/07 13:18:07;;;;;;;6.20;2.38;;;31.80;66.10;;;;;;6284334;22;20138;-77
2022/10/07 13:20:42;;;;;;;5.00;2.60;;;30.90;66.30;;;;;;6131613;23;20005;-79
2022/10/07 13:23:17;;;;;;;5.60;2.40;;;31.10;66.40;;;;;;6131832;23;20006;-79
2022/10/07 13:25:54;;;;;;;5.00;2.70;;;31.70;65.40;;;;;;6130883;23;20017;-77
2022/10/07 13:28:23;;;;;;;3.65;2.53;;;30.80;65.60;;;;;;6131891;23;20103;-77
2022/10/07 13:30:51;;;;;;;5.95;2.78;;;31.00;67.10;;;;;;6130884;23;20169;-77
2022/10/07 13:33:49;;;;;;;4.72;2.13;;;31.30;64.80;;;;;;6107226;23;20056;-77
2022/10/07 13:36:35;;;;;;;7.57;2.80;;;32.10;64.30;;;;;;6094740;23;20029;-78
2022/10/07 13:39:18;;;;;;;4.47;2.15;;;32.50;64.10;;;;;;6106635;23;20010;-78
2022/10/07 13:41:55;;;;;;;3.92;2.03;;;33.60;62.90;;;;;;6131410;23;20126;-80
2022/10/07 13:44:24;;;;;;;4.97;2.55;;;33.50;64.00;;;;;;6106941;23;20135;-79
2022/10/07 13:47:04;;;;;;;5.10;1.85;;;32.10;63.10;;;;;;6131318;23;20006;-77
2022/10/07 13:49:42;;;;;;;5.75;2.28;;;32.30;63.40;;;;;;6131853;23;20354;-76
2022/10/07 13:52:39;;;;;;;3.15;1.90;;;31.90;64.60;;;;;;6225439;22;20210;-78
2022/10/07 13:55:31;;;;;;;6.07;2.55;;;31.60;64.50;;;;;;6281794;22;20015;-78
2022/10/07 13:58:00;;;;;;;3.90;2.13;;;31.10;65.60;;;;;;6256182;22;20315;-77
2022/10/07 14:00:31;;;;;;;7.28;2.33;;;31.60;65.40;;;;;;6283945;22;20063;-79
2022/10/07 14:03:00;;;;;;;6.47;4.65;;;32.00;63.00;;;;;;6256003;22;20035;-78
2022/10/07 14:05:29;;;;;;;;;;;31.80;63.20;;;;;;6284774;22;20008;-79
2022/10/07 14:08:17;;;;;;;6.72;2.90;;;31.10;63.80;;;;;;6282083;22;20204;-78
2022/10/07 14:11:02;;;;;;;4.60;2.50;;;30.00;66.60;;;;;;6282643;22;20027;-79
2022/10/07 14:13:29;;;;;;;7.25;2.67;;;30.10;66.10;;;;;;6257163;22;20014;-74
2022/10/07 14:16:00;;;;;;;5.70;3.00;;;30.70;65.80;;;;;;6283383;22;19992;-78
2022/10/07 14:18:33;;;;;;;6.72;2.75;;;30.70;65.20;;;;;;6257232;22;20007;-77
2022/10/07 14:21:13;;;;;;;4.10;2.50;;;31.00;64.80;;;;;;6283465;22;20030;-78
2022/10/07 14:23:39;;;;;;;4.25;2.63;;;31.70;64.00;;;;;;6283813;22;20004;-79
2022/10/07 14:26:09;;;;;;;4.75;2.35;;;32.00;63.00;;;;;;6283023;22;20011;-76
2022/10/07 14:28:47;;;;;;;4.05;2.22;;;32.40;63.00;;;;;;6283899;22;20010;-78
2022/10/07 14:37:31;;;;;;;3.35;2.00;;;31.40;63.00;;;;;;6256375;22;20265;-77
2022/10/07 14:39:57;;;;;;;3.80;2.10;;;31.30;62.90;;;;;;6281624;22;20004;-77
2022/10/07 14:42:37;;;;;;;3.67;2.45;;;31.00;64.40;;;;;;6230743;22;20071;-77
2022/10/07 14:45:16;;;;;;;4.28;2.30;;;31.40;63.60;;;;;;6283125;22;20151;-78
2022/10/07 14:47:48;;;;;;;5.13;2.20;;;31.20;63.60;;;;;;6281910;22;20281;-78
2022/10/07 14:50:23;;;;;;;4.82;2.65;;;30.90;65.30;;;;;;6283127;22;20286;-75
2022/10/07 14:52:53;;;;;;;5.22;2.40;;;30.10;64.80;;;;;;6283113;22;20022;-76
2022/10/07 14:55:26;;;;;;;4.80;2.28;;;29.20;66.80;;;;;;6283221;22;20054;-76
2022/10/07 14:57:52;;;;;;;4.80;2.50;;;29.20;67.70;;;;;;6282473;22;20088;-78
2022/10/07 15:00:23;;;;;;;5.57;2.80;;;28.70;68.00;;;;;;6283027;22;20030;-77
2022/10/07 15:02:49;;;;;;;6.20;2.60;;;28.20;69.90;;;;;;6236587;23;20039;-79
2022/10/07 15:05:16;;;;;;;4.28;2.40;;;28.10;69.10;;;;;;6225980;23;20038;-76
2022/10/07 15:07:41;;;;;;;3.88;2.40;;;27.40;70.30;;;;;;6252129;23;20239;-77
2022/10/07 15:10:16;;;;;;;6.38;2.63;;;27.70;71.30;;;;;;6252759;23;20003;-80
2022/10/07 15:12:43;;;;;;;3.53;2.38;;;29.00;69.00;;;;;;6252633;23;20000;-78
2022/10/07 15:15:12;;;;;;;3.60;2.33;;;29.90;68.00;;;;;;6253037;23;20004;-78
2022/10/07 15:17:40;;;;;;;4.95;2.28;;;30.80;66.10;;;;;;6226255;23;20000;-76
2022/10/07 15:20:08;;;;;;;5.22;2.95;;;31.90;66.00;;;;;;6226420;23;20078;-75
2022/10/07 15:22:34;;;;;;;12.00;7.30;;;31.60;63.50;;;;;;6252474;23;20000;-75
2022/10/07 15:25:02;;;;;;;6.20;3.88;;;31.00;64.40;;;;;;6251588;23;20008;-76
2022/10/07 15:27:30;;;;;;;10.30;8.80;;;30.30;65.60;;;;;;6252166;23;20008;-76
2022/10/07 15:29:56;;;;;;;6.65;4.35;;;29.70;66.20;;;;;;6250166;23;20290;-76
2022/10/07 15:32:22;;;;;;;5.65;3.65;;;29.00;67.60;;;;;;6252161;23;20012;-76
2022/10/07 15:34:52;;;;;;;5.10;3.20;;;28.20;68.90;;;;;;6225251;23;20004;-76
2022/10/07 15:37:19;;;;;;;5.20;2.55;;;27.40;71.00;;;;;;6252755;23;20030;-75
2022/10/07 15:39:45;;;;;;;5.10;2.90;;;27.30;72.50;;;;;;6251901;23;20330;-76
2022/10/07 15:42:11;;;;;;;6.03;3.30;;;27.00;72.20;;;;;;6252315;23;20004;-74
2022/10/07 15:44:42;;;;;;;14.00;10.68;;;26.50;73.50;;;;;;6252511;23;20000;-77
2022/10/07 15:47:08;;;;;;;6.20;3.33;;;25.70;75.70;;;;;;6225623;23;20317;-76
2022/10/07 15:49:36;;;;;;;7.70;4.75;;;25.30;78.30;;;;;;6226036;23;20024;-75
2022/10/07 15:52:02;;;;;;;7.32;3.53;;;24.80;78.30;;;;;;6250172;23;20011;-75
2022/10/07 15:54:28;;;;;;;7.65;3.47;;;24.20;80.00;;;;;;6252160;23;20063;-76
2022/10/07 15:56:53;;;;;;;25.38;22.65;;;23.70;81.40;;;;;;6251678;23;20305;-76
2022/10/07 15:59:19;;;;;;;14.20;12.38;;;23.30;83.30;;;;;;6251928;23;20071;-74
2022/10/07 16:01:48;;;;;;;9.55;6.47;;;23.20;84.50;;;;;;6256758;22;20010;-76
2022/10/07 16:04:14;;;;;;;;;;;23.50;83.50;;;;;;6283707;22;20015;-76
2022/10/07 16:06:40;;;;;;;8.45;6.15;;;24.00;83.00;;;;;;6282798;22;19953;-76
2022/10/07 16:09:06;;;;;;;27.90;20.33;;;24.20;81.00;;;;;;6255810;22;20006;-76
2022/10/07 16:11:33;;;;;;;18.50;14.93;;;24.50;80.50;;;;;;6281361;22;20059;-77
2022/10/07 16:14:01;;;;;;;6.00;4.47;;;24.30;80.80;;;;;;6280355;22;20459;-76
2022/10/07 16:16:30;;;;;;;5.05;3.70;;;24.00;82.20;;;;;;6282440;22;19995;-76
2022/10/07 16:18:57;;;;;;;6.85;3.58;;;23.80;81.50;;;;;;6282190;22;19992;-78
2022/10/07 16:21:29;;;;;;;13.82;10.02;;;23.30;83.10;;;;;;6282722;22;20010;-76
2022/10/07 16:24:02;;;;;;;18.33;10.43;;;22.90;84.70;;;;;;6282106;22;20026;-77
2022/10/07 16:26:29;;;;;;;6.22;3.85;;;22.70;86.00;;;;;;6282087;22;20026;-75
2022/10/07 16:31:43;;;;;;;5.65;3.40;;;21.80;88.80;;;;;;6255193;22;20004;-77
2022/10/07 16:34:12;;;;;;;6.87;3.40;;;21.50;89.70;;;;;;6256551;22;19999;-77
2022/10/07 16:36:38;;;;;;;;;;;21.20;90.80;;;;;;6283692;22;20066;-77
2022/10/07 16:39:07;;;;;;;7.05;4.07;;;21.00;90.70;;;;;;6282091;22;19933;-76
2022/10/07 16:41:35;;;;;;;7.03;3.72;;;20.70;91.30;;;;;;6282563;22;20000;-77
2022/10/07 16:44:03;;;;;;;7.57;4.83;;;20.40;92.00;;;;;;6255404;22;20126;-76
2022/10/07 16:46:30;;;;;;;6.63;4.80;;;20.20;92.20;;;;;;6282943;22;20704;-79
2022/10/07 16:48:57;;;;;;;7.00;4.40;;;19.90;92.80;;;;;;6282734;22;20004;-75
2022/10/07 16:51:28;;;;;;;6.70;4.85;;;19.80;93.40;;;;;;6282530;22;19999;-74
2022/10/07 16:54:02;;;;;;;9.13;4.32;;;19.70;93.60;;;;;;6282108;22;20046;-76
2022/10/07 16:56:37;;;;;;;8.48;3.85;;;19.50;94.00;;;;;;6256194;22;20008;-77
2022/10/07 16:59:05;;;;;;;7.05;4.38;;;19.40;94.10;;;;;;6255440;22;20085;-79
2022/10/07 17:01:32;;;;;;;8.23;5.57;;;19.30;94.30;;;;;;6255566;22;19991;-78
2022/10/07 17:03:59;;;;;;;8.38;5.78;;;19.30;94.50;;;;;;6254338;22;20289;-77
2022/10/07 17:06:28;;;;;;;9.05;6.75;;;19.20;94.90;;;;;;6281918;22;20110;-78
2022/10/07 17:08:55;;;;;;;12.32;9.02;;;19.10;95.10;;;;;;6257161;22;20006;-78
2022/10/07 17:11:28;;;;;;;11.13;7.80;;;18.90;95.30;;;;;;6283857;22;20009;-77
2022/10/07 17:13:55;;;;;;;9.73;6.57;;;18.90;95.50;;;;;;6232285;22;20003;-78
2022/10/07 17:16:21;;;;;;;16.50;10.98;;;18.80;96.00;;;;;;6257414;22;20008;-76
2022/10/07 17:18:47;;;;;;;45.55;29.95;;;18.80;96.60;;;;;;6232316;22;20035;-77
2022/10/07 17:21:13;;;;;;;82.18;49.83;;;18.70;96.40;;;;;;6283561;22;20309;-76
2022/10/07 17:23:39;;;;;;;25.42;14.73;;;18.60;96.70;;;;;;6258050;22;19999;-77
2022/10/07 17:26:06;;;;;;;13.77;8.45;;;18.60;97.50;;;;;;6284369;22;20033;-78
2022/10/07 17:28:36;;;;;;;19.90;13.40;;;18.70;97.50;;;;;;6258369;22;20023;-77
2022/10/07 17:31:12;;;;;;;10.27;6.22;;;18.70;96.90;;;;;;6232061;22;20308;-78
2022/10/07 17:33:47;;;;;;;7.20;5.20;;;18.70;97.10;;;;;;6285175;22;20031;-76
2022/10/07 17:36:13;;;;;;;12.20;8.00;;;18.70;97.30;;;;;;6236983;22;20007;-77
2022/10/07 17:38:40;;;;;;;7.00;4.95;;;18.60;97.50;;;;;;6288960;22;20286;-75
2022/10/07 17:41:18;;;;;;;9.23;6.00;;;18.60;97.50;;;;;;6262553;22;20014;-78
2022/10/07 17:43:45;;;;;;;13.32;8.77;;;18.40;97.40;;;;;;6286518;22;20057;-77
2022/10/07 17:46:13;;;;;;;18.92;14.70;;;18.20;98.20;;;;;;6261148;22;20018;-77
2022/10/07 17:48:50;;;;;;;10.60;7.28;;;18.10;98.50;;;;;;6257846;22;20010;-77
2022/10/07 17:51:19;;;;;;;13.10;8.63;;;18.10;99.00;;;;;;6285247;22;19999;-77
2022/10/07 17:53:45;;;;;;;13.40;7.75;;;18.00;99.20;;;;;;6284172;22;20010;-75
2022/10/07 17:56:14;;;;;;;13.25;9.75;;;17.90;99.40;;;;;;6284906;22;20257;-75
2022/10/07 17:58:42;;;;;;;13.38;9.65;;;17.90;99.40;;;;;;6286364;22;20003;-76
2022/10/07 18:01:14;;;;;;;11.60;7.47;;;17.80;99.60;;;;;;6285948;22;20004;-78
2022/10/07 18:03:42;;;;;;;9.82;5.97;;;17.80;99.90;;;;;;6260793;22;20022;-76
2022/10/07 18:06:09;;;;;;;10.48;7.03;;;17.70;99.90;;;;;;6286744;22;20300;-77
2022/10/07 18:08:35;;;;;;;12.98;10.40;;;17.60;99.90;;;;;;6260056;22;20031;-76
2022/10/07 18:11:01;;;;;;;8.68;6.00;;;17.40;99.90;;;;;;6258950;22;19992;-77
2022/10/07 18:16:24;;;;;;;10.10;5.85;;;17.20;99.90;;;;;;6178000;22;20029;-77
2022/10/07 18:18:55;;;;;;;11.80;7.22;;;17.10;99.90;;;;;;6260795;22;20011;-75
2022/10/07 18:21:22;;;;;;;9.68;6.70;;;17.10;99.90;;;;;;6286278;22;20062;-77
2022/10/07 18:23:53;;;;;;;10.77;6.30;;;17.10;99.90;;;;;;6284681;22;19999;-77
2022/10/07 18:26:19;;;;;;;12.23;7.32;;;17.10;99.90;;;;;;6284486;22;20007;-76
2022/10/07 18:28:45;;;;;;;9.15;6.18;;;17.00;99.90;;;;;;6284866;22;20003;-79
2022/10/07 18:31:14;;;;;;;10.63;7.93;;;17.00;99.90;;;;;;6257796;22;20011;-80
2022/10/07 18:33:39;;;;;;;11.35;7.53;;;16.90;99.90;;;;;;6257909;22;20244;-79
2022/10/07 18:36:09;;;;;;;12.07;6.75;;;16.90;99.90;;;;;;6256690;22;20012;-79
2022/10/07 18:38:37;;;;;;;7.63;5.82;;;16.80;99.90;;;;;;6284324;22;20069;-79
2022/10/07 18:41:06;;;;;;;11.05;6.65;;;16.80;99.90;;;;;;6284016;22;20004;-79
2022/10/07 18:43:38;;;;;;;9.68;6.10;;;16.70;99.90;;;;;;6282963;22;20000;-78
2022/10/07 18:46:09;;;;;;;12.50;8.02;;;16.70;99.90;;;;;;6284196;22;20027;-79
2022/10/07 18:48:37;;;;;;;9.40;6.38;;;16.70;99.90;;;;;;6257519;22;20011;-78
2022/10/07 18:51:04;;;;;;;8.50;6.60;;;16.60;99.90;;;;;;6256713;22;20004;-79
2022/10/07 18:53:35;;;;;;;11.82;6.72;;;16.60;99.90;;;;;;6282726;22;20293;-78
2022/10/07 18:56:03;;;;;;;9.50;6.90;;;16.60;99.90;;;;;;6256862;22;20007;-79